Current Weather

Ouagadougou

Ouagadougou, Burkina Faso (DFFD)

Report from: Monday, February 6, 2023 5:00 AM GMT
Current time: Monday, February 6, 2023 5:52 AM GMT

Nearby weather
Weather history
Weather forecast

Temperature22.0°C (71.6°F)
Dew point2.0°C (35.6°F)
Winds 4 kts (2.1 m/s, 4.6 mph) North-Northwest (340°)
Visibility5 mi. (8 km)
Altimeter29.85 in.Hg (1011 mB)
Relative humidity27 %
Density altitude1,000 ft. (305 m)
Remarks No significant changes expected in the next two hours
Flight conditions Marginal Visual Meteorological Conditions
Raw dataDFFD 060500Z 34004KT 8000 NSC 22/02 Q1011 NOSIG
An error has occurred. This application may no longer respond until reloaded. Reload 🗙